createdAt,value
2019-01-13T00:06:46.272Z,9.17
2019-01-13T00:11:50.798Z,10.03
2019-01-13T00:16:55.134Z,5.63
2019-01-13T00:27:28.459Z,8.23
2019-01-13T00:32:51.807Z,4.53
2019-01-13T00:37:56.037Z,4.43
2019-01-13T00:53:27.383Z,5.97
2019-01-13T00:58:51.005Z,6.90
2019-01-13T01:04:14.288Z,6.40
2019-01-13T01:14:28.462Z,10.23
2019-01-13T01:25:01.731Z,11.93
2019-01-13T01:30:47.031Z,13.47
2019-01-13T01:41:01.012Z,15.87
2019-01-13T01:46:05.544Z,15.60
2019-01-13T01:51:09.778Z,15.80
2019-01-13T01:56:14.022Z,15.60
2019-01-13T02:01:18.268Z,16.77
2019-01-13T02:06:22.528Z,14.37
2019-01-13T02:11:26.765Z,14.07
2019-01-13T02:17:10.448Z,13.93
2019-01-13T02:22:33.749Z,12.73
2019-01-13T02:27:37.997Z,12.43
2019-01-13T02:32:42.271Z,11.80
2019-01-13T02:37:46.550Z,11.37
2019-01-13T02:42:50.789Z,12.33
2019-01-13T02:47:55.080Z,12.00
2019-01-13T02:53:18.379Z,12.43
2019-01-13T02:58:22.623Z,11.67
2019-01-13T03:19:16.303Z,9.87
2019-01-13T03:24:20.616Z,9.03
2019-01-13T03:29:44.180Z,8.50
2019-01-13T03:40:09.709Z,8.13
2019-01-13T03:45:53.308Z,7.37
2019-01-13T03:50:57.546Z,6.70
2019-01-13T03:56:01.767Z,7.27
2019-01-13T04:01:45.526Z,6.20
2019-01-13T04:06:49.757Z,6.40
2019-01-13T04:18:02.158Z,6.30
2019-01-13T04:23:06.391Z,5.27
2019-01-13T04:28:10.743Z,4.97
2019-01-13T04:33:14.983Z,4.53
2019-01-13T04:48:39.180Z,3.93
2019-01-13T04:53:43.409Z,3.73
2019-01-13T04:58:47.639Z,3.43
2019-01-13T05:04:10.936Z,3.20
2019-01-13T05:14:24.489Z,2.83
2019-01-13T05:19:28.740Z,2.50
2019-01-13T05:24:51.961Z,2.57
2019-01-13T05:29:56.232Z,2.57
2019-01-13T05:35:00.478Z,2.33
2019-01-13T05:40:23.768Z,1.63
2019-01-13T05:45:39.864Z,1.70
2019-01-13T05:50:44.091Z,1.77
2019-01-13T05:55:48.317Z,1.70
2019-01-13T06:11:12.284Z,3.17
2019-01-13T06:16:16.615Z,3.50
2019-01-13T06:26:49.878Z,5.53
2019-01-13T06:31:56.468Z,6.07
2019-01-13T06:42:11.472Z,7.03
2019-01-13T06:47:27.016Z,9.07
2019-01-13T06:57:41.145Z,6.83
2019-01-13T07:02:45.369Z,6.67
2019-01-13T07:13:18.611Z,6.07
2019-01-13T07:18:22.831Z,5.03
2019-01-13T07:23:27.060Z,4.97
2019-01-13T07:28:31.308Z,4.20
2019-01-13T07:33:35.980Z,3.50
2019-01-13T07:43:49.733Z,3.10
2019-01-13T07:48:53.996Z,3.40
2019-01-13T07:53:58.542Z,3.07
2019-01-13T07:59:02.768Z,2.50
2019-01-13T08:09:38.131Z,2.13
2019-01-13T08:30:55.017Z,2.00
2019-01-13T08:41:27.615Z,1.47
2019-01-13T08:46:31.854Z,1.57
2019-01-13T08:51:47.863Z,1.60
2019-01-13T08:57:03.759Z,1.30
2019-01-13T09:02:07.994Z,1.23
2019-01-13T09:07:12.227Z,1.10
2019-01-13T09:12:16.769Z,1.40
2019-01-13T09:17:20.993Z,1.10
2019-01-13T09:22:25.217Z,1.10
2019-01-13T09:33:37.766Z,2.10
2019-01-13T09:54:22.632Z,0.67
2019-01-13T09:59:38.711Z,0.90
2019-01-13T10:10:53.021Z,1.50
2019-01-13T10:15:57.264Z,2.10
2019-01-13T10:21:01.562Z,1.70
2019-01-13T10:26:05.861Z,2.33
2019-01-13T10:57:19.153Z,1.90
2019-01-13T11:03:03.211Z,1.40
2019-01-13T11:08:46.939Z,1.97
2019-01-13T11:19:20.274Z,1.63
2019-01-13T11:45:41.459Z,2.30
2019-01-13T11:50:45.700Z,2.00
2019-01-13T11:55:49.943Z,1.57
2019-01-13T12:11:34.743Z,3.27
2019-01-13T12:27:37.192Z,3.20
2019-01-13T12:32:41.425Z,3.70
2019-01-13T12:37:45.675Z,3.17
2019-01-13T12:43:29.541Z,3.40
2019-01-13T12:48:33.776Z,3.00
2019-01-13T12:53:38.046Z,2.70
2019-01-13T12:58:42.306Z,3.13
2019-01-13T13:03:46.644Z,3.07
2019-01-13T13:09:09.978Z,3.37
2019-01-13T13:14:33.388Z,3.97
2019-01-13T13:19:57.464Z,5.17
2019-01-13T13:25:41.267Z,5.03
2019-01-13T13:31:04.570Z,3.30
2019-01-13T13:41:43.328Z,5.13
2019-01-13T14:03:17.172Z,4.47
2019-01-13T14:23:50.525Z,1.90
2019-01-13T14:29:13.841Z,1.80
2019-01-13T14:51:09.302Z,0.90
2019-01-13T15:06:34.764Z,0.83
2019-01-13T15:11:39.036Z,1.20
2019-01-13T15:16:43.371Z,0.90
2019-01-13T15:21:47.665Z,0.90
2019-01-13T15:26:51.895Z,1.03
2019-01-13T15:31:56.195Z,0.90
2019-01-13T15:42:49.884Z,0.90
2019-01-13T16:03:41.911Z,1.20
2019-01-13T16:14:29.299Z,0.80
2019-01-13T16:19:33.350Z,0.70
2019-01-13T16:24:37.574Z,0.80
2019-01-13T16:29:42.156Z,0.97
2019-01-13T16:35:05.860Z,1.00
2019-01-13T16:40:29.280Z,0.80
2019-01-13T16:45:33.903Z,0.80
2019-01-13T16:50:38.140Z,0.90
2019-01-13T16:55:42.359Z,0.70
2019-01-13T17:00:46.588Z,1.07
2019-01-13T17:05:50.859Z,1.00
2019-01-13T17:26:49.081Z,1.97
2019-01-13T17:37:22.733Z,2.07
2019-01-13T17:42:46.128Z,3.73
2019-01-13T17:48:30.115Z,3.03
2019-01-13T17:58:44.879Z,2.83
2019-01-13T18:03:49.423Z,3.27
2019-01-13T18:09:12.724Z,3.20
2019-01-13T18:19:38.120Z,3.97
2019-01-13T18:24:42.404Z,3.90
2019-01-13T18:29:46.664Z,4.43
2019-01-13T18:34:50.921Z,4.77
2019-01-13T18:39:55.160Z,7.47
2019-01-13T18:50:28.144Z,4.80
2019-01-13T18:55:51.740Z,4.87
2019-01-13T19:00:56.004Z,4.50
2019-01-13T19:17:41.242Z,1.83
2019-01-13T19:22:57.123Z,2.00
2019-01-13T19:28:01.374Z,2.37
2019-01-13T19:33:45.135Z,2.03
2019-01-13T19:38:49.885Z,2.60
2019-01-13T19:43:54.500Z,2.93
2019-01-13T19:48:58.739Z,4.17
2019-01-13T19:54:03.055Z,3.70
2019-01-13T20:10:25.828Z,2.70
2019-01-13T20:20:58.652Z,0.97
2019-01-13T20:33:10.328Z,0.80
2019-01-13T20:38:34.606Z,0.80
2019-01-13T20:43:59.007Z,0.60
2019-01-13T21:11:00.085Z,1.70
2019-01-13T21:16:23.479Z,1.30
2019-01-13T21:21:28.374Z,1.73
2019-01-13T21:26:52.840Z,1.90
2019-01-13T21:31:57.163Z,1.93
2019-01-13T21:37:13.245Z,1.90
2019-01-13T21:42:17.482Z,1.73
2019-01-13T21:52:50.412Z,2.30
2019-01-13T21:58:13.702Z,2.90
2019-01-13T22:08:47.547Z,2.80
2019-01-13T22:14:11.537Z,3.67
2019-01-13T22:19:16.323Z,3.80
2019-01-13T22:24:39.625Z,3.77
2019-01-13T22:29:44.346Z,3.57
2019-01-13T22:40:58.510Z,4.57
2019-01-13T22:46:21.838Z,3.77
2019-01-13T22:51:26.765Z,5.30
2019-01-13T23:02:20.815Z,4.43
2019-01-13T23:07:25.868Z,4.80
2019-01-13T23:12:30.171Z,4.47
2019-01-13T23:28:12.685Z,4.73
2019-01-13T23:33:17.272Z,3.07
2019-01-13T23:43:50.484Z,4.73
2019-01-13T23:54:45.312Z,3.77
2019-01-13T23:59:49.631Z,3.97
